Terminal Aerodrome Forecast
Issued by NWS Sioux Falls, SD

Home | Current Version | Previous Version | Text Only | Print | Product List | Glossary On
Versions: 1 2 3 4 5 6 7 8 9 10 11 12 13 14 15 16 17 18
000
FTUS43 KFSD 241744
TAFFSD
TAF
KFSD 241744Z 2418/2518 09011KT 5SM -RA BR OVC015
      TEMPO 2418/2422 2SM -RA BR OVC008
     FM242200 08006KT 6SM BR OVC015
     FM250200 03005KT P6SM OVC015
     FM250500 01005KT 4SM BR OVC008
     FM251500 29006KT P6SM OVC025=

USA.gov is the U.S. government's official web portal to all federal, state and local government web resources and services.